createdAt,value
2023-05-24T00:01:26.016Z,101581.44
2023-05-24T00:03:59.127Z,101579.34
2023-05-24T00:06:28.780Z,101585.94
2023-05-24T00:08:56.898Z,101581.63
2023-05-24T00:11:24.942Z,101577.94
2023-05-24T00:13:52.996Z,101572.97
2023-05-24T00:16:21.065Z,101578.22
2023-05-24T00:18:49.047Z,101576.22
2023-05-24T00:21:18.388Z,101583.97
2023-05-24T00:23:46.333Z,101573.47
2023-05-24T00:26:14.550Z,101575.59
2023-05-24T00:28:50.607Z,101586.25
2023-05-24T00:31:19.434Z,101580.69
2023-05-24T00:33:47.480Z,101573.94
2023-05-24T00:36:15.458Z,101574.59
2023-05-24T00:38:44.829Z,101574.91
2023-05-24T00:41:12.956Z,101577.88
2023-05-24T00:43:43.352Z,101578.44
2023-05-24T00:46:18.964Z,101570.81
2023-05-24T00:48:47.789Z,101570.81
2023-05-24T00:51:16.172Z,101580.44
2023-05-24T00:53:47.757Z,101573.34
2023-05-24T00:56:16.655Z,101563.19
2023-05-24T00:58:45.689Z,101560.84
2023-05-24T01:01:14.464Z,101570.25
2023-05-24T01:03:43.434Z,101568.50
2023-05-24T01:06:16.726Z,101564.72
2023-05-24T01:08:56.186Z,101557.50
2023-05-24T01:11:36.006Z,101554.88
2023-05-24T01:14:14.947Z,101558.66
2023-05-24T01:16:51.802Z,101557.94
2023-05-24T01:19:43.483Z,101544.56
2023-05-24T01:22:25.469Z,101557.78
2023-05-24T01:25:04.736Z,101538.84
2023-05-24T01:27:36.838Z,101552.66
2023-05-24T01:30:06.108Z,101548.34
2023-05-24T01:32:34.890Z,101549.59
2023-05-24T01:35:03.064Z,101554.94
2023-05-24T01:37:31.238Z,101550.16
2023-05-24T01:39:59.862Z,101547.22
2023-05-24T01:42:33.890Z,101546.94
2023-05-24T01:45:10.090Z,101550.88
2023-05-24T01:47:48.662Z,101544.19
2023-05-24T01:50:25.183Z,101537.75
2023-05-24T01:52:56.251Z,101539.94
2023-05-24T01:55:28.238Z,101533.25
2023-05-24T01:58:03.193Z,101535.69
2023-05-24T02:00:34.030Z,101540.94
2023-05-24T02:03:03.348Z,101522.84
2023-05-24T02:05:33.452Z,101523.72
2023-05-24T02:08:06.404Z,101521.34
2023-05-24T02:10:34.318Z,101520.03
2023-05-24T02:13:02.251Z,101513.09
2023-05-24T02:15:30.668Z,101518.00
2023-05-24T02:18:01.644Z,101514.38
2023-05-24T02:20:31.413Z,101508.66
2023-05-24T02:23:01.015Z,101517.66
2023-05-24T02:25:29.094Z,101517.41
2023-05-24T02:27:57.004Z,101513.59
2023-05-24T02:30:25.153Z,101512.16
2023-05-24T02:32:53.251Z,101512.75
2023-05-24T02:35:22.667Z,101506.91
2023-05-24T02:37:50.597Z,101504.31
2023-05-24T02:40:18.824Z,101507.13
2023-05-24T02:42:46.850Z,101496.16
2023-05-24T02:45:14.866Z,101494.50
2023-05-24T02:47:42.796Z,101494.78
2023-05-24T02:50:11.813Z,101488.25
2023-05-24T02:52:41.664Z,101498.38
2023-05-24T02:55:10.486Z,101503.59
2023-05-24T02:57:39.019Z,101501.00
2023-05-24T03:00:09.311Z,101498.88
2023-05-24T03:02:38.751Z,101505.16
2023-05-24T03:05:07.823Z,101497.94
2023-05-24T03:07:36.057Z,101502.75
2023-05-24T03:10:06.415Z,101513.59
2023-05-24T03:12:34.410Z,101511.94
2023-05-24T03:15:02.287Z,101507.44
2023-05-24T03:17:31.987Z,101510.56
2023-05-24T03:20:00.016Z,101509.50
2023-05-24T03:22:31.024Z,101516.81
2023-05-24T03:24:59.235Z,101504.97
2023-05-24T03:27:28.565Z,101497.31
2023-05-24T03:29:56.478Z,101497.31
2023-05-24T03:32:28.643Z,101507.59
2023-05-24T03:34:57.679Z,101500.16
2023-05-24T03:37:26.108Z,101493.00
2023-05-24T03:39:54.243Z,101496.31
2023-05-24T03:42:42.381Z,101502.38
2023-05-24T03:45:12.303Z,101499.22
2023-05-24T03:47:40.371Z,101513.28
2023-05-24T03:50:09.535Z,101518.41
2023-05-24T03:52:37.387Z,101514.97
2023-05-24T03:55:05.972Z,101514.56
2023-05-24T03:57:33.979Z,101522.78
2023-05-24T04:00:05.472Z,101519.34
2023-05-24T04:02:42.460Z,101512.97
2023-05-24T04:05:12.257Z,101519.66
2023-05-24T04:07:40.294Z,101511.03
2023-05-24T04:10:09.715Z,101512.66
2023-05-24T04:12:37.731Z,101521.13
2023-05-24T04:15:14.768Z,101532.03
2023-05-24T04:17:43.797Z,101522.78
2023-05-24T04:20:12.260Z,101523.97
2023-05-24T04:22:40.300Z,101521.06
2023-05-24T04:25:09.942Z,101522.88
2023-05-24T04:27:38.150Z,101525.31
2023-05-24T04:30:07.721Z,101526.06
2023-05-24T04:32:38.093Z,101526.75
2023-05-24T04:35:07.216Z,101523.00
2023-05-24T04:37:35.090Z,101519.47
2023-05-24T04:40:04.484Z,101527.38
2023-05-24T04:42:32.569Z,101525.75
2023-05-24T04:45:00.526Z,101532.88
2023-05-24T04:47:28.458Z,101531.22
2023-05-24T04:49:58.072Z,101530.56
2023-05-24T04:52:26.367Z,101522.75
2023-05-24T04:54:55.509Z,101534.03
2023-05-24T04:57:23.680Z,101528.44
2023-05-24T04:59:51.803Z,101527.97
2023-05-24T05:02:19.846Z,101523.50
2023-05-24T05:04:47.849Z,101523.31
2023-05-24T05:07:17.260Z,101517.56
2023-05-24T05:09:45.062Z,101521.31
2023-05-24T05:12:12.905Z,101526.25
2023-05-24T05:14:40.731Z,101533.94
2023-05-24T05:17:08.600Z,101529.59
2023-05-24T05:19:36.613Z,101532.16
2023-05-24T05:22:04.637Z,101535.53
2023-05-24T05:24:33.956Z,101535.19
2023-05-24T05:27:01.770Z,101534.44
2023-05-24T05:29:29.570Z,101538.34
2023-05-24T05:31:57.464Z,101526.53
2023-05-24T05:34:25.454Z,101533.56
2023-05-24T05:36:53.352Z,101537.53
2023-05-24T05:39:21.215Z,101533.72
2023-05-24T05:41:50.448Z,101537.44
2023-05-24T05:44:18.308Z,101538.09
2023-05-24T05:46:46.501Z,101532.53
2023-05-24T05:49:15.313Z,101535.06
2023-05-24T05:51:43.280Z,101550.00
2023-05-24T05:54:14.571Z,101546.41
2023-05-24T05:56:45.710Z,101545.81
2023-05-24T05:59:16.546Z,101547.81
2023-05-24T06:01:45.733Z,101561.53
2023-05-24T06:04:13.757Z,101547.38
2023-05-24T06:06:41.880Z,101559.66
2023-05-24T06:09:09.725Z,101550.91
2023-05-24T06:11:39.793Z,101551.28
2023-05-24T06:14:07.758Z,101547.19
2023-05-24T06:16:41.990Z,101548.25
2023-05-24T06:19:09.987Z,101549.88
2023-05-24T06:21:37.838Z,101559.22
2023-05-24T06:24:05.977Z,101556.50
2023-05-24T06:26:33.799Z,101570.63
2023-05-24T06:29:01.583Z,101566.06
2023-05-24T06:31:29.480Z,101557.91
2023-05-24T06:36:29.507Z,101556.72
2023-05-24T06:38:57.451Z,101554.00
2023-05-24T06:41:26.926Z,101562.09
2023-05-24T06:43:54.796Z,101558.78
2023-05-24T06:46:22.821Z,101549.09
2023-05-24T06:48:51.017Z,101560.75
2023-05-24T06:51:20.372Z,101554.72
2023-05-24T06:53:48.269Z,101550.50
2023-05-24T06:56:16.157Z,101569.28
2023-05-24T06:58:44.059Z,101560.06
2023-05-24T07:01:12.120Z,101567.38
2023-05-24T07:03:39.943Z,101579.31
2023-05-24T07:06:09.976Z,101569.94
2023-05-24T07:08:39.153Z,101574.97
2023-05-24T07:11:07.858Z,101573.44
2023-05-24T07:13:35.972Z,101578.91
2023-05-24T07:16:03.820Z,101586.97
2023-05-24T07:18:31.701Z,101578.63
2023-05-24T07:21:01.002Z,101579.28
2023-05-24T07:23:28.883Z,101585.03
2023-05-24T07:25:58.146Z,101584.47
2023-05-24T07:28:26.042Z,101590.34
2023-05-24T07:30:54.041Z,101592.94
2023-05-24T07:33:21.933Z,101591.50
2023-05-24T07:35:51.618Z,101591.53
2023-05-24T07:38:19.581Z,101595.16
2023-05-24T07:40:47.500Z,101597.50
2023-05-24T07:43:16.787Z,101590.41
2023-05-24T07:45:44.714Z,101597.81
2023-05-24T07:48:12.661Z,101587.91
2023-05-24T07:50:40.656Z,101597.16
2023-05-24T07:53:08.704Z,101605.63
2023-05-24T07:55:36.713Z,101605.72
2023-05-24T07:58:04.643Z,101614.84
2023-05-24T08:00:34.596Z,101611.31
2023-05-24T08:03:03.226Z,101613.06
2023-05-24T08:05:31.196Z,101620.63
2023-05-24T08:07:59.130Z,101615.75
2023-05-24T08:10:27.533Z,101617.59
2023-05-24T08:12:56.138Z,101619.00
2023-05-24T08:15:24.251Z,101620.16
2023-05-24T08:17:53.453Z,101614.09
2023-05-24T08:20:21.522Z,101620.19
2023-05-24T08:22:49.454Z,101613.56
2023-05-24T08:25:17.416Z,101623.16
2023-05-24T08:27:45.279Z,101601.97
2023-05-24T08:30:15.183Z,101597.22
2023-05-24T08:32:43.083Z,101612.13
2023-05-24T08:37:46.214Z,101621.41
2023-05-24T08:40:14.510Z,101633.50
2023-05-24T08:42:43.120Z,101620.44
2023-05-24T08:45:13.495Z,101631.47
2023-05-24T08:47:42.434Z,101634.16
2023-05-24T08:50:12.815Z,101643.72
2023-05-24T08:52:42.945Z,101635.25
2023-05-24T08:55:12.445Z,101631.47
2023-05-24T08:57:41.767Z,101639.94
2023-05-24T09:00:12.822Z,101649.59
2023-05-24T09:02:42.329Z,101648.25
2023-05-24T09:05:14.625Z,101643.41
2023-05-24T09:07:44.683Z,101649.81
2023-05-24T09:10:13.562Z,101643.47
2023-05-24T09:12:46.363Z,101642.72
2023-05-24T09:15:14.333Z,101648.59
2023-05-24T09:17:42.352Z,101642.88
2023-05-24T09:20:14.006Z,101643.38
2023-05-24T09:22:44.162Z,101638.34
2023-05-24T09:25:14.673Z,101637.25
2023-05-24T09:27:42.758Z,101633.72
2023-05-24T09:30:12.960Z,101642.88
2023-05-24T09:32:41.348Z,101637.88
2023-05-24T09:35:10.745Z,101639.78
2023-05-24T09:37:40.575Z,101643.16
2023-05-24T09:40:19.914Z,101646.69
2023-05-24T09:42:51.411Z,101641.88
2023-05-24T09:45:19.650Z,101647.50
2023-05-24T09:47:48.313Z,101650.50
2023-05-24T09:50:17.914Z,101657.53
2023-05-24T09:52:47.519Z,101657.94
2023-05-24T09:55:16.276Z,101640.53
2023-05-24T09:57:45.040Z,101648.19
2023-05-24T10:00:16.995Z,101642.88
2023-05-24T10:02:53.581Z,101641.22
2023-05-24T10:05:22.560Z,101637.94
2023-05-24T10:07:53.373Z,101636.13
2023-05-24T10:10:21.401Z,101637.63
2023-05-24T10:12:51.090Z,101638.34
2023-05-24T10:15:19.082Z,101651.00
2023-05-24T10:17:47.255Z,101641.72
2023-05-24T10:20:16.137Z,101641.03
2023-05-24T10:22:46.377Z,101640.56
2023-05-24T10:25:21.783Z,101648.19
2023-05-24T10:27:51.841Z,101644.41
2023-05-24T10:30:27.890Z,101659.41
2023-05-24T10:32:58.005Z,101659.09
2023-05-24T10:35:27.414Z,101654.47
2023-05-24T10:37:55.914Z,101656.81
2023-05-24T10:40:26.282Z,101659.75
2023-05-24T10:42:55.384Z,101662.88
2023-05-24T10:45:35.701Z,101664.19
2023-05-24T10:48:11.249Z,101661.81
2023-05-24T10:50:39.264Z,101663.56
2023-05-24T10:53:14.622Z,101663.75
2023-05-24T10:55:57.283Z,101666.81
2023-05-24T10:58:30.503Z,101661.00
2023-05-24T11:00:58.349Z,101674.72
2023-05-24T11:03:26.401Z,101664.75
2023-05-24T11:05:55.827Z,101668.78
2023-05-24T11:08:31.664Z,101659.09
2023-05-24T11:13:42.253Z,101660.50
2023-05-24T11:16:10.490Z,101662.72
2023-05-24T11:18:40.095Z,101660.44
2023-05-24T11:21:08.163Z,101667.72
2023-05-24T11:23:38.430Z,101669.59
2023-05-24T11:26:09.354Z,101667.44
2023-05-24T11:28:38.516Z,101669.38
2023-05-24T11:31:09.550Z,101671.81
2023-05-24T11:33:43.483Z,101669.75
2023-05-24T11:36:11.345Z,101661.78
2023-05-24T11:38:39.222Z,101659.88
2023-05-24T11:41:08.521Z,101658.69
2023-05-24T11:43:37.677Z,101664.44
2023-05-24T11:46:05.975Z,101665.44
2023-05-24T11:48:33.949Z,101672.50
2023-05-24T11:51:04.727Z,101663.19
2023-05-24T11:53:32.861Z,101671.84
2023-05-24T11:56:00.849Z,101666.50
2023-05-24T11:58:38.574Z,101664.25
2023-05-24T12:01:07.913Z,101662.97
2023-05-24T12:03:35.995Z,101664.91
2023-05-24T12:06:04.055Z,101662.03
2023-05-24T12:08:32.160Z,101658.00
2023-05-24T12:10:59.992Z,101657.94
2023-05-24T12:13:28.947Z,101661.34
2023-05-24T12:15:58.147Z,101657.88
2023-05-24T12:18:27.554Z,101657.09
2023-05-24T12:20:55.845Z,101664.19
2023-05-24T12:23:27.523Z,101662.88
2023-05-24T12:25:59.641Z,101659.91
2023-05-24T12:28:27.593Z,101657.44
2023-05-24T12:30:56.269Z,101660.75
2023-05-24T12:33:24.792Z,101666.72
2023-05-24T12:35:54.382Z,101647.56
2023-05-24T12:38:25.551Z,101652.75
2023-05-24T12:41:08.233Z,101652.91
2023-05-24T12:43:40.718Z,101655.34
2023-05-24T12:46:08.862Z,101647.22
2023-05-24T12:48:36.980Z,101649.44
2023-05-24T12:51:08.166Z,101642.13
2023-05-24T12:53:36.609Z,101633.91
2023-05-24T12:56:04.640Z,101640.22
2023-05-24T12:58:32.616Z,101639.75
2023-05-24T13:01:00.551Z,101640.47
2023-05-24T13:03:28.516Z,101640.19
2023-05-24T13:05:56.558Z,101635.47
2023-05-24T13:08:28.602Z,101642.47
2023-05-24T13:10:56.922Z,101636.13
2023-05-24T13:13:24.808Z,101642.78
2023-05-24T13:15:53.380Z,101640.09
2023-05-24T13:18:21.409Z,101643.91
2023-05-24T13:20:50.963Z,101643.84
2023-05-24T13:23:19.048Z,101642.63
2023-05-24T13:25:49.723Z,101645.25
2023-05-24T13:28:17.709Z,101639.78
2023-05-24T13:30:45.785Z,101631.03
2023-05-24T13:33:14.381Z,101637.13
2023-05-24T13:35:42.640Z,101637.41
2023-05-24T13:38:10.723Z,101646.25
2023-05-24T13:43:28.037Z,101641.63
2023-05-24T13:45:56.047Z,101645.38
2023-05-24T13:47:41.321Z,101641.19
2023-05-24T13:48:23.996Z,101648.66
2023-05-24T13:50:51.866Z,101636.25
2023-05-24T13:53:19.705Z,101635.28
2023-05-24T13:55:47.767Z,101630.31
2023-05-24T13:58:15.826Z,101632.25
2023-05-24T14:00:45.267Z,101636.03
2023-05-24T14:03:13.312Z,101638.31
2023-05-24T14:05:41.851Z,101630.78
2023-05-24T14:08:09.925Z,101635.34
2023-05-24T14:10:38.179Z,101634.16
2023-05-24T14:15:38.015Z,101632.09
2023-05-24T14:18:08.669Z,101633.59
2023-05-24T14:20:38.237Z,101639.22
2023-05-24T14:23:07.524Z,101627.16
2023-05-24T14:25:35.814Z,101636.88
2023-05-24T14:28:04.408Z,101641.38
2023-05-24T14:30:32.803Z,101636.25
2023-05-24T14:33:00.813Z,101640.75
2023-05-24T14:35:30.329Z,101643.38
2023-05-24T14:37:58.193Z,101646.31
2023-05-24T14:40:26.138Z,101649.03
2023-05-24T14:42:55.367Z,101652.66
2023-05-24T14:45:23.331Z,101640.66
2023-05-24T14:47:51.327Z,101636.53
2023-05-24T14:50:19.291Z,101645.41
2023-05-24T14:52:48.519Z,101638.13
2023-05-24T14:55:16.672Z,101640.66
2023-05-24T14:57:44.600Z,101646.19
2023-05-24T15:00:14.021Z,101654.88
2023-05-24T15:02:42.272Z,101643.47
2023-05-24T15:05:10.699Z,101654.50
2023-05-24T15:07:38.573Z,101646.00
2023-05-24T15:10:08.834Z,101650.41
2023-05-24T15:12:36.812Z,101652.25
2023-05-24T15:15:06.916Z,101649.41
2023-05-24T15:17:35.029Z,101657.44
2023-05-24T15:20:03.087Z,101662.34
2023-05-24T15:22:30.954Z,101666.09
2023-05-24T15:24:59.290Z,101660.41
2023-05-24T15:27:28.867Z,101659.53
2023-05-24T15:29:59.137Z,101659.13
2023-05-24T15:32:27.432Z,101664.28
2023-05-24T15:34:55.295Z,101652.50
2023-05-24T15:37:23.383Z,101651.06
2023-05-24T15:39:52.566Z,101647.56
2023-05-24T15:42:21.632Z,101651.38
2023-05-24T15:44:51.104Z,101655.00
2023-05-24T15:47:21.906Z,101651.72
2023-05-24T15:49:50.197Z,101661.88
2023-05-24T15:52:18.123Z,101658.06
2023-05-24T15:54:46.131Z,101656.88
2023-05-24T15:57:14.202Z,101660.59
2023-05-24T15:59:42.108Z,101662.53
2023-05-24T16:02:12.248Z,101657.78
2023-05-24T16:04:40.686Z,101651.63
2023-05-24T16:07:08.542Z,101652.00
2023-05-24T16:09:36.440Z,101657.94
2023-05-24T16:12:04.409Z,101657.09
2023-05-24T16:14:32.280Z,101662.31
2023-05-24T16:17:08.089Z,101662.13
2023-05-24T16:19:37.821Z,101668.59
2023-05-24T16:22:08.027Z,101656.78
2023-05-24T16:24:35.957Z,101653.00
2023-05-24T16:27:09.817Z,101654.28
2023-05-24T16:29:44.894Z,101654.34
2023-05-24T16:32:15.439Z,101646.47
2023-05-24T16:37:23.065Z,101645.81
2023-05-24T16:39:50.933Z,101638.19
2023-05-24T16:42:18.843Z,101647.72
2023-05-24T16:44:46.775Z,101650.84
2023-05-24T16:47:14.869Z,101656.69
2023-05-24T16:49:44.316Z,101653.19
2023-05-24T16:52:12.300Z,101659.22
2023-05-24T16:54:40.489Z,101646.81
2023-05-24T16:57:08.609Z,101639.47
2023-05-24T16:59:37.221Z,101652.16
2023-05-24T17:02:05.262Z,101636.94
2023-05-24T17:04:33.197Z,101642.53
2023-05-24T17:07:02.475Z,101648.44
2023-05-24T17:09:30.448Z,101642.38
2023-05-24T17:11:58.222Z,101654.66
2023-05-24T17:14:26.094Z,101654.28
2023-05-24T17:16:54.115Z,101657.56
2023-05-24T17:19:22.733Z,101650.59
2023-05-24T17:21:50.694Z,101659.31
2023-05-24T17:24:21.716Z,101658.31
2023-05-24T17:26:49.703Z,101660.69
2023-05-24T17:29:17.628Z,101656.78
2023-05-24T17:31:45.590Z,101665.53
2023-05-24T17:34:14.974Z,101653.69
2023-05-24T17:36:43.213Z,101657.81
2023-05-24T17:39:11.147Z,101646.41
2023-05-24T17:41:40.868Z,101658.06
2023-05-24T17:44:08.832Z,101668.22
2023-05-24T17:46:39.007Z,101674.06
2023-05-24T17:49:08.468Z,101674.69
2023-05-24T17:51:38.847Z,101693.19
2023-05-24T17:54:07.008Z,101682.59
2023-05-24T17:56:36.043Z,101677.63
2023-05-24T17:59:06.651Z,101682.59
2023-05-24T18:01:34.480Z,101681.03
2023-05-24T18:04:02.411Z,101682.88
2023-05-24T18:06:30.374Z,101679.69
2023-05-24T18:08:58.480Z,101684.09
2023-05-24T18:11:26.313Z,101682.91
2023-05-24T18:13:54.468Z,101701.13
2023-05-24T18:16:23.957Z,101688.91
2023-05-24T18:18:52.088Z,101687.09
2023-05-24T18:21:20.046Z,101696.69
2023-05-24T18:23:47.953Z,101695.41
2023-05-24T18:26:15.959Z,101684.63
2023-05-24T18:28:43.786Z,101687.75
2023-05-24T18:31:11.711Z,101698.31
2023-05-24T18:33:42.374Z,101689.56
2023-05-24T18:36:10.328Z,101691.50
2023-05-24T18:38:39.874Z,101699.31
2023-05-24T18:41:09.518Z,101698.75
2023-05-24T18:43:37.483Z,101700.97
2023-05-24T18:46:05.469Z,101698.56
2023-05-24T18:48:33.573Z,101690.00
2023-05-24T18:51:04.199Z,101699.34
2023-05-24T18:53:32.183Z,101689.84
2023-05-24T18:56:00.140Z,101681.25
2023-05-24T18:58:28.103Z,101693.84
2023-05-24T19:00:56.149Z,101699.41
2023-05-24T19:03:24.800Z,101705.53
2023-05-24T19:05:52.965Z,101708.22
2023-05-24T19:08:22.460Z,101716.78
2023-05-24T19:10:50.794Z,101717.56
2023-05-24T19:13:18.747Z,101718.09
2023-05-24T19:15:46.888Z,101721.91
2023-05-24T19:18:15.009Z,101721.22
2023-05-24T19:20:43.257Z,101717.50
2023-05-24T19:23:11.299Z,101731.16
2023-05-24T19:25:42.315Z,101729.69
2023-05-24T19:28:11.871Z,101727.88
2023-05-24T19:30:39.858Z,101728.06
2023-05-24T19:33:07.929Z,101732.94
2023-05-24T19:35:36.574Z,101723.97
2023-05-24T19:38:04.736Z,101728.16
2023-05-24T19:40:32.617Z,101725.25
2023-05-24T19:43:02.251Z,101736.41
2023-05-24T19:45:30.519Z,101735.47
2023-05-24T19:47:58.712Z,101737.13
2023-05-24T19:50:28.422Z,101743.81
2023-05-24T19:52:58.561Z,101750.41
2023-05-24T19:55:50.059Z,101745.56
2023-05-24T19:58:25.978Z,101757.88
2023-05-24T20:00:53.946Z,101763.91
2023-05-24T20:03:36.056Z,101760.66
2023-05-24T20:06:04.225Z,101759.56
2023-05-24T20:08:47.165Z,101764.53
2023-05-24T20:11:17.748Z,101768.19
2023-05-24T20:13:47.093Z,101766.88
2023-05-24T20:16:15.139Z,101769.94
2023-05-24T20:18:43.265Z,101769.75
2023-05-24T20:21:12.129Z,101780.75
2023-05-24T20:23:40.218Z,101785.75
2023-05-24T20:26:08.251Z,101770.28
2023-05-24T20:28:39.328Z,101775.78
2023-05-24T20:31:08.856Z,101775.22
2023-05-24T20:33:38.348Z,101779.94
2023-05-24T20:36:08.114Z,101778.06
2023-05-24T20:38:37.329Z,101773.81
2023-05-24T20:41:05.393Z,101790.34
2023-05-24T20:43:33.545Z,101789.72
2023-05-24T20:46:01.688Z,101785.22
2023-05-24T20:48:30.960Z,101788.56
2023-05-24T20:50:58.821Z,101798.81
2023-05-24T20:53:26.889Z,101791.13
2023-05-24T20:55:56.532Z,101792.06
2023-05-24T20:58:24.364Z,101806.41
2023-05-24T21:00:52.380Z,101805.69
2023-05-24T21:03:20.616Z,101803.81
2023-05-24T21:05:50.206Z,101806.38
2023-05-24T21:08:18.220Z,101816.47
2023-05-24T21:10:46.254Z,101809.44
2023-05-24T21:13:14.216Z,101821.50
2023-05-24T21:15:45.216Z,101809.94
2023-05-24T21:18:13.671Z,101811.31
2023-05-24T21:20:41.934Z,101821.13
2023-05-24T21:23:11.617Z,101828.97
2023-05-24T21:25:39.766Z,101829.97
2023-05-24T21:28:08.266Z,101833.25
2023-05-24T21:30:36.193Z,101828.16
2023-05-24T21:33:04.413Z,101830.28
2023-05-24T21:35:33.242Z,101830.63
2023-05-24T21:38:01.387Z,101839.63
2023-05-24T21:40:30.624Z,101842.22
2023-05-24T21:42:58.874Z,101849.34
2023-05-24T21:45:27.133Z,101842.31
2023-05-24T21:47:55.381Z,101848.13
2023-05-24T21:50:23.555Z,101849.56
2023-05-24T21:52:51.578Z,101856.31
2023-05-24T21:55:19.875Z,101865.53
2023-05-24T21:57:49.587Z,101872.44
2023-05-24T22:00:19.873Z,101875.38
2023-05-24T22:02:48.001Z,101872.38
2023-05-24T22:05:16.355Z,101872.50
2023-05-24T22:07:44.224Z,101874.22
2023-05-24T22:10:12.872Z,101882.34
2023-05-24T22:12:41.114Z,101882.34
2023-05-24T22:15:12.675Z,101882.22
2023-05-24T22:17:42.024Z,101885.69
2023-05-24T22:20:13.425Z,101882.25
2023-05-24T22:22:48.796Z,101890.41
2023-05-24T22:25:19.312Z,101898.00
2023-05-24T22:27:48.446Z,101902.72
2023-05-24T22:30:18.265Z,101899.38
2023-05-24T22:32:46.517Z,101892.06
2023-05-24T22:35:14.451Z,101891.09
2023-05-24T22:37:42.728Z,101887.19
2023-05-24T22:40:13.331Z,101889.66
2023-05-24T22:42:41.285Z,101891.19
2023-05-24T22:45:10.094Z,101884.25
2023-05-24T22:47:40.019Z,101896.16
2023-05-24T22:50:09.516Z,101891.69
2023-05-24T22:52:42.332Z,101897.84
2023-05-24T22:55:11.012Z,101896.34
2023-05-24T22:57:39.442Z,101911.16
2023-05-24T23:00:08.964Z,101901.78
2023-05-24T23:02:37.261Z,101900.69
2023-05-24T23:05:07.508Z,101900.56
2023-05-24T23:07:37.433Z,101899.44
2023-05-24T23:10:06.069Z,101900.50
2023-05-24T23:12:34.714Z,101905.84
2023-05-24T23:15:02.887Z,101905.94
2023-05-24T23:17:30.812Z,101914.56
2023-05-24T23:19:59.308Z,101907.63
2023-05-24T23:22:29.775Z,101911.22
2023-05-24T23:24:57.884Z,101904.88
2023-05-24T23:27:26.039Z,101897.59
2023-05-24T23:29:54.105Z,101899.59
2023-05-24T23:32:22.060Z,101894.91
2023-05-24T23:34:49.963Z,101899.19
2023-05-24T23:37:18.611Z,101895.53
2023-05-24T23:39:47.828Z,101901.56
2023-05-24T23:42:15.894Z,101890.59
2023-05-24T23:44:43.847Z,101896.25
2023-05-24T23:47:12.192Z,101893.84
2023-05-24T23:49:40.207Z,101899.72
2023-05-24T23:52:08.310Z,101903.06
2023-05-24T23:54:36.308Z,101898.88
2023-05-24T23:57:07.589Z,101894.59
2023-05-24T23:59:35.764Z,101907.31
